sensor_id;sensor_type;location;lat;lon;timestamp;P1;durP1;ratioP1;P2;durP2;ratioP2
59042;SDS011;44826;51.596;5.624;2023-04-03T00:01:08;4.53;;;3.00;;
59042;SDS011;44826;51.596;5.624;2023-04-03T00:03:34;3.73;;;2.90;;
59042;SDS011;44826;51.596;5.624;2023-04-03T00:05:59;4.83;;;3.27;;
59042;SDS011;44826;51.596;5.624;2023-04-03T00:08:25;5.47;;;3.03;;
59042;SDS011;44826;51.596;5.624;2023-04-03T00:10:50;4.93;;;3.13;;
59042;SDS011;44826;51.596;5.624;2023-04-03T00:13:16;4.97;;;2.70;;
59042;SDS011;44826;51.596;5.624;2023-04-03T00:15:41;4.43;;;3.03;;
59042;SDS011;44826;51.596;5.624;2023-04-03T00:18:07;4.40;;;3.00;;
59042;SDS011;44826;51.596;5.624;2023-04-03T00:20:33;4.20;;;2.97;;
59042;SDS011;44826;51.596;5.624;2023-04-03T00:22:59;5.00;;;2.93;;
59042;SDS011;44826;51.596;5.624;2023-04-03T00:25:25;6.20;;;3.60;;
59042;SDS011;44826;51.596;5.624;2023-04-03T00:27:50;4.63;;;3.20;;
59042;SDS011;44826;51.596;5.624;2023-04-03T00:30:17;6.27;;;3.53;;
59042;SDS011;44826;51.596;5.624;2023-04-03T00:32:44;5.23;;;3.30;;
59042;SDS011;44826;51.596;5.624;2023-04-03T00:35:09;5.60;;;3.50;;
59042;SDS011;44826;51.596;5.624;2023-04-03T00:37:36;5.33;;;3.20;;
59042;SDS011;44826;51.596;5.624;2023-04-03T00:40:02;6.97;;;3.30;;
59042;SDS011;44826;51.596;5.624;2023-04-03T00:42:28;6.37;;;3.30;;
59042;SDS011;44826;51.596;5.624;2023-04-03T00:47:29;5.03;;;2.80;;
59042;SDS011;44826;51.596;5.624;2023-04-03T00:49:56;4.97;;;3.10;;
59042;SDS011;44826;51.596;5.624;2023-04-03T00:52:23;5.03;;;2.87;;
59042;SDS011;44826;51.596;5.624;2023-04-03T00:54:54;5.82;;;2.97;;
59042;SDS011;44826;51.596;5.624;2023-04-03T00:57:23;5.03;;;3.17;;
59042;SDS011;44826;51.596;5.624;2023-04-03T00:59:50;4.70;;;3.00;;
59042;SDS011;44826;51.596;5.624;2023-04-03T01:02:20;4.45;;;2.60;;
59042;SDS011;44826;51.596;5.624;2023-04-03T01:04:46;5.53;;;2.60;;
59042;SDS011;44826;51.596;5.624;2023-04-03T01:07:13;3.57;;;2.33;;
59042;SDS011;44826;51.596;5.624;2023-04-03T01:09:41;3.90;;;2.50;;
59042;SDS011;44826;51.596;5.624;2023-04-03T01:12:21;4.27;;;2.43;;
59042;SDS011;44826;51.596;5.624;2023-04-03T01:14:52;3.70;;;2.60;;
59042;SDS011;44826;51.596;5.624;2023-04-03T01:25:22;3.70;;;2.57;;
59042;SDS011;44826;51.596;5.624;2023-04-03T01:27:48;4.10;;;2.47;;
59042;SDS011;44826;51.596;5.624;2023-04-03T01:30:14;4.33;;;3.00;;
59042;SDS011;44826;51.596;5.624;2023-04-03T01:32:42;4.10;;;2.80;;
59042;SDS011;44826;51.596;5.624;2023-04-03T01:35:08;4.87;;;2.73;;
59042;SDS011;44826;51.596;5.624;2023-04-03T01:37:34;4.83;;;2.77;;
59042;SDS011;44826;51.596;5.624;2023-04-03T01:39:59;4.07;;;2.53;;
59042;SDS011;44826;51.596;5.624;2023-04-03T01:42:24;5.87;;;2.90;;
59042;SDS011;44826;51.596;5.624;2023-04-03T01:44:50;4.67;;;3.00;;
59042;SDS011;44826;51.596;5.624;2023-04-03T01:47:15;4.03;;;2.67;;
59042;SDS011;44826;51.596;5.624;2023-04-03T01:49:40;4.77;;;2.80;;
59042;SDS011;44826;51.596;5.624;2023-04-03T01:52:05;5.23;;;2.90;;
59042;SDS011;44826;51.596;5.624;2023-04-03T01:54:31;6.00;;;3.00;;
59042;SDS011;44826;51.596;5.624;2023-04-03T01:56:56;4.10;;;2.60;;
59042;SDS011;44826;51.596;5.624;2023-04-03T01:59:21;4.27;;;2.57;;
59042;SDS011;44826;51.596;5.624;2023-04-03T02:01:47;3.93;;;2.17;;
59042;SDS011;44826;51.596;5.624;2023-04-03T02:04:12;4.23;;;2.60;;
59042;SDS011;44826;51.596;5.624;2023-04-03T02:06:37;4.27;;;2.70;;
59042;SDS011;44826;51.596;5.624;2023-04-03T02:09:03;3.97;;;2.20;;
59042;SDS011;44826;51.596;5.624;2023-04-03T02:11:29;3.33;;;2.17;;
59042;SDS011;44826;51.596;5.624;2023-04-03T02:13:55;3.80;;;2.37;;
59042;SDS011;44826;51.596;5.624;2023-04-03T02:16:20;2.97;;;2.00;;
59042;SDS011;44826;51.596;5.624;2023-04-03T02:18:45;4.13;;;2.47;;
59042;SDS011;44826;51.596;5.624;2023-04-03T02:21:11;3.57;;;2.33;;
59042;SDS011;44826;51.596;5.624;2023-04-03T02:23:36;2.73;;;2.00;;
59042;SDS011;44826;51.596;5.624;2023-04-03T02:26:08;3.03;;;2.10;;
59042;SDS011;44826;51.596;5.624;2023-04-03T02:28:36;3.10;;;2.13;;
59042;SDS011;44826;51.596;5.624;2023-04-03T02:31:02;4.57;;;2.30;;
59042;SDS011;44826;51.596;5.624;2023-04-03T02:33:28;3.90;;;2.17;;
59042;SDS011;44826;51.596;5.624;2023-04-03T02:35:56;3.90;;;2.10;;
59042;SDS011;44826;51.596;5.624;2023-04-03T02:38:22;3.60;;;2.07;;
59042;SDS011;44826;51.596;5.624;2023-04-03T02:40:48;3.90;;;2.20;;
59042;SDS011;44826;51.596;5.624;2023-04-03T02:43:14;3.57;;;1.87;;
59042;SDS011;44826;51.596;5.624;2023-04-03T02:45:39;3.53;;;2.10;;
59042;SDS011;44826;51.596;5.624;2023-04-03T02:48:05;4.47;;;1.83;;
59042;SDS011;44826;51.596;5.624;2023-04-03T02:50:30;4.57;;;2.03;;
59042;SDS011;44826;51.596;5.624;2023-04-03T02:52:56;3.87;;;2.00;;
59042;SDS011;44826;51.596;5.624;2023-04-03T02:55:21;2.90;;;2.00;;
59042;SDS011;44826;51.596;5.624;2023-04-03T02:57:46;4.10;;;1.93;;
59042;SDS011;44826;51.596;5.624;2023-04-03T03:00:12;4.70;;;2.10;;
59042;SDS011;44826;51.596;5.624;2023-04-03T03:02:37;4.27;;;2.20;;
59042;SDS011;44826;51.596;5.624;2023-04-03T03:05:03;4.13;;;2.10;;
59042;SDS011;44826;51.596;5.624;2023-04-03T03:07:29;3.67;;;2.00;;
59042;SDS011;44826;51.596;5.624;2023-04-03T03:09:54;3.20;;;1.80;;
59042;SDS011;44826;51.596;5.624;2023-04-03T03:12:19;2.73;;;1.80;;
59042;SDS011;44826;51.596;5.624;2023-04-03T03:14:46;2.80;;;1.73;;
59042;SDS011;44826;51.596;5.624;2023-04-03T03:17:12;2.60;;;1.53;;
59042;SDS011;44826;51.596;5.624;2023-04-03T03:19:37;4.17;;;1.87;;
59042;SDS011;44826;51.596;5.624;2023-04-03T03:22:03;3.53;;;1.70;;
59042;SDS011;44826;51.596;5.624;2023-04-03T03:24:28;4.43;;;1.80;;
59042;SDS011;44826;51.596;5.624;2023-04-03T03:26:53;3.10;;;1.60;;
59042;SDS011;44826;51.596;5.624;2023-04-03T03:29:19;3.73;;;1.87;;
59042;SDS011;44826;51.596;5.624;2023-04-03T03:31:44;3.07;;;1.70;;
59042;SDS011;44826;51.596;5.624;2023-04-03T03:34:10;4.23;;;1.80;;
59042;SDS011;44826;51.596;5.624;2023-04-03T03:36:35;3.27;;;1.70;;
59042;SDS011;44826;51.596;5.624;2023-04-03T03:39:01;3.30;;;1.60;;
59042;SDS011;44826;51.596;5.624;2023-04-03T03:41:26;3.73;;;1.73;;
59042;SDS011;44826;51.596;5.624;2023-04-03T03:43:51;3.23;;;1.70;;
59042;SDS011;44826;51.596;5.624;2023-04-03T03:46:17;2.67;;;1.63;;
59042;SDS011;44826;51.596;5.624;2023-04-03T03:48:42;2.70;;;1.60;;
59042;SDS011;44826;51.596;5.624;2023-04-03T03:51:07;2.47;;;1.40;;
59042;SDS011;44826;51.596;5.624;2023-04-03T03:53:33;2.80;;;1.60;;
59042;SDS011;44826;51.596;5.624;2023-04-03T03:55:58;3.30;;;1.40;;
59042;SDS011;44826;51.596;5.624;2023-04-03T03:58:23;4.23;;;1.50;;
59042;SDS011;44826;51.596;5.624;2023-04-03T04:00:48;3.47;;;1.37;;
59042;SDS011;44826;51.596;5.624;2023-04-03T04:03:14;3.07;;;1.60;;
59042;SDS011;44826;51.596;5.624;2023-04-03T04:05:39;2.93;;;1.50;;
59042;SDS011;44826;51.596;5.624;2023-04-03T04:08:05;2.77;;;1.47;;
59042;SDS011;44826;51.596;5.624;2023-04-03T04:10:30;1.87;;;1.30;;
59042;SDS011;44826;51.596;5.624;2023-04-03T04:12:55;2.77;;;1.60;;
59042;SDS011;44826;51.596;5.624;2023-04-03T04:15:21;5.27;;;1.50;;
59042;SDS011;44826;51.596;5.624;2023-04-03T04:17:46;3.20;;;1.50;;
59042;SDS011;44826;51.596;5.624;2023-04-03T04:20:12;2.33;;;1.47;;
59042;SDS011;44826;51.596;5.624;2023-04-03T04:22:37;2.83;;;1.40;;
59042;SDS011;44826;51.596;5.624;2023-04-03T04:25:04;3.10;;;1.47;;
59042;SDS011;44826;51.596;5.624;2023-04-03T04:27:29;2.73;;;1.40;;
59042;SDS011;44826;51.596;5.624;2023-04-03T04:29:55;3.10;;;1.40;;
59042;SDS011;44826;51.596;5.624;2023-04-03T04:32:20;2.80;;;1.33;;
59042;SDS011;44826;51.596;5.624;2023-04-03T04:34:45;2.40;;;1.30;;
59042;SDS011;44826;51.596;5.624;2023-04-03T04:37:10;3.70;;;1.53;;
59042;SDS011;44826;51.596;5.624;2023-04-03T04:39:36;3.50;;;1.50;;
59042;SDS011;44826;51.596;5.624;2023-04-03T04:42:01;3.63;;;1.47;;
59042;SDS011;44826;51.596;5.624;2023-04-03T04:44:26;1.50;;;1.00;;
59042;SDS011;44826;51.596;5.624;2023-04-03T04:46:52;3.13;;;1.40;;
59042;SDS011;44826;51.596;5.624;2023-04-03T04:49:17;2.37;;;1.40;;
59042;SDS011;44826;51.596;5.624;2023-04-03T04:51:42;4.40;;;1.50;;
59042;SDS011;44826;51.596;5.624;2023-04-03T04:54:08;3.03;;;1.40;;
59042;SDS011;44826;51.596;5.624;2023-04-03T04:56:33;2.40;;;1.27;;
59042;SDS011;44826;51.596;5.624;2023-04-03T04:58:58;2.63;;;1.17;;
59042;SDS011;44826;51.596;5.624;2023-04-03T05:01:24;2.67;;;1.30;;
59042;SDS011;44826;51.596;5.624;2023-04-03T05:03:49;4.17;;;1.33;;
59042;SDS011;44826;51.596;5.624;2023-04-03T05:06:14;4.53;;;1.23;;
59042;SDS011;44826;51.596;5.624;2023-04-03T05:08:40;2.17;;;1.40;;
59042;SDS011;44826;51.596;5.624;2023-04-03T05:11:05;2.63;;;1.17;;
59042;SDS011;44826;51.596;5.624;2023-04-03T05:13:30;3.40;;;1.50;;
59042;SDS011;44826;51.596;5.624;2023-04-03T05:15:56;2.80;;;1.33;;
59042;SDS011;44826;51.596;5.624;2023-04-03T05:18:21;3.53;;;1.37;;
59042;SDS011;44826;51.596;5.624;2023-04-03T05:20:48;4.07;;;1.20;;
59042;SDS011;44826;51.596;5.624;2023-04-03T05:23:15;2.93;;;1.47;;
59042;SDS011;44826;51.596;5.624;2023-04-03T05:25:40;2.30;;;1.20;;
59042;SDS011;44826;51.596;5.624;2023-04-03T05:28:05;1.97;;;1.37;;
59042;SDS011;44826;51.596;5.624;2023-04-03T05:30:31;2.40;;;1.30;;
59042;SDS011;44826;51.596;5.624;2023-04-03T05:32:56;2.57;;;1.20;;
59042;SDS011;44826;51.596;5.624;2023-04-03T05:35:24;2.93;;;1.20;;
59042;SDS011;44826;51.596;5.624;2023-04-03T05:37:49;3.20;;;1.40;;
59042;SDS011;44826;51.596;5.624;2023-04-03T05:40:15;3.90;;;1.40;;
59042;SDS011;44826;51.596;5.624;2023-04-03T05:42:40;2.40;;;1.30;;
59042;SDS011;44826;51.596;5.624;2023-04-03T05:45:06;3.03;;;1.33;;
59042;SDS011;44826;51.596;5.624;2023-04-03T05:47:31;2.67;;;1.40;;
59042;SDS011;44826;51.596;5.624;2023-04-03T05:49:56;2.63;;;1.40;;
59042;SDS011;44826;51.596;5.624;2023-04-03T05:54:54;2.40;;;1.33;;
59042;SDS011;44826;51.596;5.624;2023-04-03T05:57:20;2.03;;;1.33;;
59042;SDS011;44826;51.596;5.624;2023-04-03T05:59:46;3.30;;;1.40;;
59042;SDS011;44826;51.596;5.624;2023-04-03T06:02:12;3.43;;;1.40;;
59042;SDS011;44826;51.596;5.624;2023-04-03T06:04:41;3.43;;;1.53;;
59042;SDS011;44826;51.596;5.624;2023-04-03T06:07:06;4.17;;;1.40;;
59042;SDS011;44826;51.596;5.624;2023-04-03T06:09:32;3.30;;;1.30;;
59042;SDS011;44826;51.596;5.624;2023-04-03T06:11:58;3.50;;;1.53;;
59042;SDS011;44826;51.596;5.624;2023-04-03T06:14:24;4.13;;;1.40;;
59042;SDS011;44826;51.596;5.624;2023-04-03T06:16:50;4.20;;;1.50;;
59042;SDS011;44826;51.596;5.624;2023-04-03T06:19:16;2.37;;;1.17;;
59042;SDS011;44826;51.596;5.624;2023-04-03T06:21:42;2.83;;;1.20;;
59042;SDS011;44826;51.596;5.624;2023-04-03T06:24:07;4.10;;;1.57;;
59042;SDS011;44826;51.596;5.624;2023-04-03T06:26:33;3.20;;;1.40;;
59042;SDS011;44826;51.596;5.624;2023-04-03T06:28:59;3.97;;;1.50;;
59042;SDS011;44826;51.596;5.624;2023-04-03T06:31:25;3.00;;;1.30;;
59042;SDS011;44826;51.596;5.624;2023-04-03T06:33:51;3.80;;;1.33;;
59042;SDS011;44826;51.596;5.624;2023-04-03T06:36:17;5.40;;;1.50;;
59042;SDS011;44826;51.596;5.624;2023-04-03T06:38:47;2.57;;;1.50;;
59042;SDS011;44826;51.596;5.624;2023-04-03T06:41:13;2.80;;;1.40;;
59042;SDS011;44826;51.596;5.624;2023-04-03T06:43:38;4.17;;;1.63;;
59042;SDS011;44826;51.596;5.624;2023-04-03T06:46:03;4.43;;;1.30;;
59042;SDS011;44826;51.596;5.624;2023-04-03T06:48:29;3.40;;;1.40;;
59042;SDS011;44826;51.596;5.624;2023-04-03T06:50:54;3.87;;;1.30;;
59042;SDS011;44826;51.596;5.624;2023-04-03T06:53:20;3.27;;;1.30;;
59042;SDS011;44826;51.596;5.624;2023-04-03T06:55:46;4.50;;;1.50;;
59042;SDS011;44826;51.596;5.624;2023-04-03T06:58:12;2.77;;;1.30;;
59042;SDS011;44826;51.596;5.624;2023-04-03T07:00:37;3.63;;;1.30;;
59042;SDS011;44826;51.596;5.624;2023-04-03T07:03:02;3.23;;;1.40;;
59042;SDS011;44826;51.596;5.624;2023-04-03T07:05:28;3.13;;;1.70;;
59042;SDS011;44826;51.596;5.624;2023-04-03T07:07:53;3.30;;;1.60;;
59042;SDS011;44826;51.596;5.624;2023-04-03T07:10:18;3.63;;;1.63;;
59042;SDS011;44826;51.596;5.624;2023-04-03T07:12:44;3.77;;;1.40;;
59042;SDS011;44826;51.596;5.624;2023-04-03T07:15:10;3.33;;;1.40;;
59042;SDS011;44826;51.596;5.624;2023-04-03T07:17:37;2.90;;;1.20;;
59042;SDS011;44826;51.596;5.624;2023-04-03T07:20:03;2.77;;;1.40;;
59042;SDS011;44826;51.596;5.624;2023-04-03T07:22:29;3.80;;;1.40;;
59042;SDS011;44826;51.596;5.624;2023-04-03T07:24:54;2.93;;;1.40;;
59042;SDS011;44826;51.596;5.624;2023-04-03T07:27:20;2.30;;;1.20;;
59042;SDS011;44826;51.596;5.624;2023-04-03T07:29:45;3.50;;;1.30;;
59042;SDS011;44826;51.596;5.624;2023-04-03T07:32:12;3.73;;;1.50;;
59042;SDS011;44826;51.596;5.624;2023-04-03T07:34:37;2.67;;;1.50;;
59042;SDS011;44826;51.596;5.624;2023-04-03T07:37:02;3.73;;;1.50;;
59042;SDS011;44826;51.596;5.624;2023-04-03T07:39:29;2.37;;;1.27;;
59042;SDS011;44826;51.596;5.624;2023-04-03T07:41:54;7.97;;;1.60;;
59042;SDS011;44826;51.596;5.624;2023-04-03T07:44:23;4.23;;;1.57;;
59042;SDS011;44826;51.596;5.624;2023-04-03T07:46:49;4.63;;;1.47;;
59042;SDS011;44826;51.596;5.624;2023-04-03T07:49:15;3.40;;;1.73;;
59042;SDS011;44826;51.596;5.624;2023-04-03T07:51:42;3.70;;;1.57;;
59042;SDS011;44826;51.596;5.624;2023-04-03T07:54:08;3.77;;;1.20;;
59042;SDS011;44826;51.596;5.624;2023-04-03T07:56:33;3.90;;;1.23;;
59042;SDS011;44826;51.596;5.624;2023-04-03T07:58:58;3.87;;;1.90;;
59042;SDS011;44826;51.596;5.624;2023-04-03T08:01:24;3.83;;;1.30;;
59042;SDS011;44826;51.596;5.624;2023-04-03T08:03:49;3.97;;;1.33;;
59042;SDS011;44826;51.596;5.624;2023-04-03T08:06:15;4.93;;;1.30;;
59042;SDS011;44826;51.596;5.624;2023-04-03T08:08:41;3.63;;;1.40;;
59042;SDS011;44826;51.596;5.624;2023-04-03T08:11:06;3.67;;;1.40;;
59042;SDS011;44826;51.596;5.624;2023-04-03T08:13:33;3.60;;;1.30;;
59042;SDS011;44826;51.596;5.624;2023-04-03T08:16:06;2.53;;;1.13;;
59042;SDS011;44826;51.596;5.624;2023-04-03T08:18:36;2.10;;;1.03;;
59042;SDS011;44826;51.596;5.624;2023-04-03T08:21:04;1.67;;;1.10;;
59042;SDS011;44826;51.596;5.624;2023-04-03T08:23:30;4.03;;;1.33;;
59042;SDS011;44826;51.596;5.624;2023-04-03T08:25:56;2.73;;;1.20;;
59042;SDS011;44826;51.596;5.624;2023-04-03T08:28:21;4.13;;;1.10;;
59042;SDS011;44826;51.596;5.624;2023-04-03T08:30:46;4.73;;;1.20;;
59042;SDS011;44826;51.596;5.624;2023-04-03T08:33:11;3.80;;;1.40;;
59042;SDS011;44826;51.596;5.624;2023-04-03T08:35:40;3.80;;;1.30;;
59042;SDS011;44826;51.596;5.624;2023-04-03T08:38:07;3.87;;;1.23;;
59042;SDS011;44826;51.596;5.624;2023-04-03T08:40:33;2.93;;;1.30;;
59042;SDS011;44826;51.596;5.624;2023-04-03T08:43:02;4.43;;;1.20;;
59042;SDS011;44826;51.596;5.624;2023-04-03T08:45:47;2.77;;;1.00;;
59042;SDS011;44826;51.596;5.624;2023-04-03T08:48:17;3.90;;;1.10;;
59042;SDS011;44826;51.596;5.624;2023-04-03T08:50:47;2.58;;;0.98;;
59042;SDS011;44826;51.596;5.624;2023-04-03T08:53:25;3.07;;;1.00;;
59042;SDS011;44826;51.596;5.624;2023-04-03T08:55:53;3.53;;;1.00;;
59042;SDS011;44826;51.596;5.624;2023-04-03T08:58:24;2.00;;;0.70;;
59042;SDS011;44826;51.596;5.624;2023-04-03T09:00:53;3.10;;;0.98;;
59042;SDS011;44826;51.596;5.624;2023-04-03T09:03:23;2.97;;;0.80;;
59042;SDS011;44826;51.596;5.624;2023-04-03T09:16:59;2.60;;;0.80;;
59042;SDS011;44826;51.596;5.624;2023-04-03T09:22:13;0.97;;;0.60;;
59042;SDS011;44826;51.596;5.624;2023-04-03T09:25:02;1.27;;;0.80;;
59042;SDS011;44826;51.596;5.624;2023-04-03T09:27:35;1.27;;;0.60;;
59042;SDS011;44826;51.596;5.624;2023-04-03T09:30:00;1.30;;;0.73;;
59042;SDS011;44826;51.596;5.624;2023-04-03T09:35:00;1.03;;;0.60;;
59042;SDS011;44826;51.596;5.624;2023-04-03T09:42:57;2.00;;;0.70;;
59042;SDS011;44826;51.596;5.624;2023-04-03T09:45:26;1.70;;;0.50;;
59042;SDS011;44826;51.596;5.624;2023-04-03T09:53:24;2.00;;;0.70;;
59042;SDS011;44826;51.596;5.624;2023-04-03T09:55:53;1.80;;;0.60;;
59042;SDS011;44826;51.596;5.624;2023-04-03T09:58:29;0.70;;;0.50;;
59042;SDS011;44826;51.596;5.624;2023-04-03T10:00:58;1.20;;;0.50;;
59042;SDS011;44826;51.596;5.624;2023-04-03T10:05:56;0.97;;;0.60;;
59042;SDS011;44826;51.596;5.624;2023-04-03T10:08:27;1.53;;;0.50;;
59042;SDS011;44826;51.596;5.624;2023-04-03T10:11:11;1.80;;;0.52;;
59042;SDS011;44826;51.596;5.624;2023-04-03T10:13:51;1.52;;;0.50;;
59042;SDS011;44826;51.596;5.624;2023-04-03T10:19:34;1.10;;;0.70;;
59042;SDS011;44826;51.596;5.624;2023-04-03T10:24:51;1.43;;;0.40;;
59042;SDS011;44826;51.596;5.624;2023-04-03T10:27:40;0.80;;;0.40;;
59042;SDS011;44826;51.596;5.624;2023-04-03T10:30:19;0.77;;;0.40;;
59042;SDS011;44826;51.596;5.624;2023-04-03T10:32:59;1.45;;;0.40;;
59042;SDS011;44826;51.596;5.624;2023-04-03T10:35:34;0.52;;;0.40;;
59042;SDS011;44826;51.596;5.624;2023-04-03T10:41:28;0.93;;;0.50;;
59042;SDS011;44826;51.596;5.624;2023-04-03T10:44:51;1.27;;;0.43;;
59042;SDS011;44826;51.596;5.624;2023-04-03T10:47:05;0.45;;;0.40;;
59042;SDS011;44826;51.596;5.624;2023-04-03T10:52:22;1.17;;;0.60;;
59042;SDS011;44826;51.596;5.624;2023-04-03T10:57:38;1.65;;;0.40;;
59042;SDS011;44826;51.596;5.624;2023-04-03T11:00:16;1.75;;;0.50;;
59042;SDS011;44826;51.596;5.624;2023-04-03T11:02:50;0.82;;;0.40;;
59042;SDS011;44826;51.596;5.624;2023-04-03T11:08:16;1.10;;;0.60;;
59042;SDS011;44826;51.596;5.624;2023-04-03T11:10:45;3.35;;;0.68;;
59042;SDS011;44826;51.596;5.624;2023-04-03T11:13:15;1.00;;;0.50;;
59042;SDS011;44826;51.596;5.624;2023-04-03T11:15:45;1.50;;;0.63;;
59042;SDS011;44826;51.596;5.624;2023-04-03T11:18:19;0.88;;;0.50;;
59042;SDS011;44826;51.596;5.624;2023-04-03T11:20:58;2.28;;;0.50;;
59042;SDS011;44826;51.596;5.624;2023-04-03T11:23:31;0.60;;;0.40;;
59042;SDS011;44826;51.596;5.624;2023-04-03T11:26:13;0.82;;;0.40;;
59042;SDS011;44826;51.596;5.624;2023-04-03T11:28:40;2.03;;;0.47;;
59042;SDS011;44826;51.596;5.624;2023-04-03T11:31:24;1.45;;;0.40;;
59042;SDS011;44826;51.596;5.624;2023-04-03T11:37:31;0.73;;;0.30;;
59042;SDS011;44826;51.596;5.624;2023-04-03T11:40:00;1.15;;;0.47;;
59042;SDS011;44826;51.596;5.624;2023-04-03T11:42:46;0.93;;;0.50;;
59042;SDS011;44826;51.596;5.624;2023-04-03T11:45:34;1.13;;;0.50;;
59042;SDS011;44826;51.596;5.624;2023-04-03T11:50:45;3.20;;;0.60;;
59042;SDS011;44826;51.596;5.624;2023-04-03T12:05:54;2.22;;;0.70;;
59042;SDS011;44826;51.596;5.624;2023-04-03T12:16:06;3.25;;;0.70;;
59042;SDS011;44826;51.596;5.624;2023-04-03T12:22:04;2.95;;;0.70;;
59042;SDS011;44826;51.596;5.624;2023-04-03T12:29:27;1.38;;;0.70;;
59042;SDS011;44826;51.596;5.624;2023-04-03T12:37:54;1.58;;;0.75;;
59042;SDS011;44826;51.596;5.624;2023-04-03T12:43:23;2.10;;;0.82;;
59042;SDS011;44826;51.596;5.624;2023-04-03T12:48:29;2.10;;;0.70;;
59042;SDS011;44826;51.596;5.624;2023-04-03T12:50:56;2.75;;;0.80;;
59042;SDS011;44826;51.596;5.624;2023-04-03T12:53:24;1.02;;;0.65;;
59042;SDS011;44826;51.596;5.624;2023-04-03T12:55:55;1.55;;;0.80;;
59042;SDS011;44826;51.596;5.624;2023-04-03T13:03:34;1.77;;;0.70;;
59042;SDS011;44826;51.596;5.624;2023-04-03T13:06:04;1.67;;;0.98;;
59042;SDS011;44826;51.596;5.624;2023-04-03T13:08:29;2.90;;;0.88;;
59042;SDS011;44826;51.596;5.624;2023-04-03T13:10:57;2.40;;;0.80;;
59042;SDS011;44826;51.596;5.624;2023-04-03T13:13:28;3.70;;;0.90;;
59042;SDS011;44826;51.596;5.624;2023-04-03T13:15:54;1.60;;;0.70;;
59042;SDS011;44826;51.596;5.624;2023-04-03T13:18:33;3.15;;;0.60;;
59042;SDS011;44826;51.596;5.624;2023-04-03T13:21:19;2.35;;;0.80;;
59042;SDS011;44826;51.596;5.624;2023-04-03T13:23:49;1.55;;;0.70;;
59042;SDS011;44826;51.596;5.624;2023-04-03T13:26:17;2.30;;;0.90;;
59042;SDS011;44826;51.596;5.624;2023-04-03T13:28:45;2.10;;;0.93;;
59042;SDS011;44826;51.596;5.624;2023-04-03T13:33:39;2.58;;;0.90;;
59042;SDS011;44826;51.596;5.624;2023-04-03T13:36:18;3.13;;;0.93;;
59042;SDS011;44826;51.596;5.624;2023-04-03T13:38:57;2.10;;;0.80;;
59042;SDS011;44826;51.596;5.624;2023-04-03T13:41:34;1.88;;;0.80;;
59042;SDS011;44826;51.596;5.624;2023-04-03T13:46:45;2.58;;;0.80;;
59042;SDS011;44826;51.596;5.624;2023-04-03T13:51:55;3.13;;;0.90;;
59042;SDS011;44826;51.596;5.624;2023-04-03T13:54:22;3.78;;;0.98;;
59042;SDS011;44826;51.596;5.624;2023-04-03T13:56:54;1.80;;;0.70;;
59042;SDS011;44826;51.596;5.624;2023-04-03T13:59:24;2.42;;;1.00;;
59042;SDS011;44826;51.596;5.624;2023-04-03T14:04:31;2.65;;;0.95;;
59042;SDS011;44826;51.596;5.624;2023-04-03T14:07:09;1.20;;;0.80;;
59042;SDS011;44826;51.596;5.624;2023-04-03T14:09:35;2.70;;;0.80;;
59042;SDS011;44826;51.596;5.624;2023-04-03T14:12:24;3.78;;;0.98;;
59042;SDS011;44826;51.596;5.624;2023-04-03T14:14:50;1.52;;;0.85;;
59042;SDS011;44826;51.596;5.624;2023-04-03T14:17:17;1.60;;;0.80;;
59042;SDS011;44826;51.596;5.624;2023-04-03T14:19:46;2.50;;;1.00;;
59042;SDS011;44826;51.596;5.624;2023-04-03T14:22:22;1.58;;;0.75;;
59042;SDS011;44826;51.596;5.624;2023-04-03T14:24:50;1.77;;;0.82;;
59042;SDS011;44826;51.596;5.624;2023-04-03T14:27:18;1.90;;;0.90;;
59042;SDS011;44826;51.596;5.624;2023-04-03T14:29:49;2.50;;;0.98;;
59042;SDS011;44826;51.596;5.624;2023-04-03T14:32:17;3.00;;;0.95;;
59042;SDS011;44826;51.596;5.624;2023-04-03T14:34:44;2.35;;;0.70;;
59042;SDS011;44826;51.596;5.624;2023-04-03T14:37:14;2.00;;;0.82;;
59042;SDS011;44826;51.596;5.624;2023-04-03T14:39:42;1.00;;;0.65;;
59042;SDS011;44826;51.596;5.624;2023-04-03T14:42:15;2.95;;;1.08;;
59042;SDS011;44826;51.596;5.624;2023-04-03T14:44:43;1.60;;;0.80;;
59042;SDS011;44826;51.596;5.624;2023-04-03T14:47:10;1.75;;;0.80;;
59042;SDS011;44826;51.596;5.624;2023-04-03T14:49:37;2.05;;;1.00;;
59042;SDS011;44826;51.596;5.624;2023-04-03T14:52:02;3.33;;;1.00;;
59042;SDS011;44826;51.596;5.624;2023-04-03T14:54:28;2.67;;;0.65;;
59042;SDS011;44826;51.596;5.624;2023-04-03T14:56:54;3.13;;;0.90;;
59042;SDS011;44826;51.596;5.624;2023-04-03T14:59:22;2.60;;;0.98;;
59042;SDS011;44826;51.596;5.624;2023-04-03T15:01:48;1.92;;;0.90;;
59042;SDS011;44826;51.596;5.624;2023-04-03T15:04:14;3.33;;;0.93;;
59042;SDS011;44826;51.596;5.624;2023-04-03T15:06:41;2.53;;;0.80;;
59042;SDS011;44826;51.596;5.624;2023-04-03T15:09:13;2.65;;;0.90;;
59042;SDS011;44826;51.596;5.624;2023-04-03T15:11:40;1.83;;;0.90;;
59042;SDS011;44826;51.596;5.624;2023-04-03T15:14:08;2.80;;;0.95;;
59042;SDS011;44826;51.596;5.624;2023-04-03T15:16:34;1.30;;;0.80;;
59042;SDS011;44826;51.596;5.624;2023-04-03T15:18:59;2.13;;;0.85;;
59042;SDS011;44826;51.596;5.624;2023-04-03T15:21:24;2.67;;;1.00;;
59042;SDS011;44826;51.596;5.624;2023-04-03T15:23:50;1.58;;;0.77;;
59042;SDS011;44826;51.596;5.624;2023-04-03T15:26:15;1.98;;;0.80;;
59042;SDS011;44826;51.596;5.624;2023-04-03T15:28:41;2.83;;;0.80;;
59042;SDS011;44826;51.596;5.624;2023-04-03T15:31:07;3.15;;;1.10;;
59042;SDS011;44826;51.596;5.624;2023-04-03T15:33:33;1.95;;;0.90;;
59042;SDS011;44826;51.596;5.624;2023-04-03T15:35:59;2.22;;;0.85;;
59042;SDS011;44826;51.596;5.624;2023-04-03T15:38:25;2.75;;;1.00;;
59042;SDS011;44826;51.596;5.624;2023-04-03T15:40:50;1.92;;;0.85;;
59042;SDS011;44826;51.596;5.624;2023-04-03T15:43:15;3.10;;;0.98;;
59042;SDS011;44826;51.596;5.624;2023-04-03T15:45:41;1.52;;;0.80;;
59042;SDS011;44826;51.596;5.624;2023-04-03T15:48:07;2.67;;;1.10;;
59042;SDS011;44826;51.596;5.624;2023-04-03T15:50:33;2.70;;;0.82;;
59042;SDS011;44826;51.596;5.624;2023-04-03T15:52:59;3.33;;;1.20;;
59042;SDS011;44826;51.596;5.624;2023-04-03T15:55:27;4.75;;;1.45;;
59042;SDS011;44826;51.596;5.624;2023-04-03T15:57:53;2.20;;;1.00;;
59042;SDS011;44826;51.596;5.624;2023-04-03T16:00:19;2.75;;;0.93;;
59042;SDS011;44826;51.596;5.624;2023-04-03T16:02:45;3.58;;;1.00;;
59042;SDS011;44826;51.596;5.624;2023-04-03T16:05:12;1.83;;;0.80;;
59042;SDS011;44826;51.596;5.624;2023-04-03T16:07:39;3.25;;;1.13;;
59042;SDS011;44826;51.596;5.624;2023-04-03T16:10:05;1.52;;;0.90;;
59042;SDS011;44826;51.596;5.624;2023-04-03T16:12:32;2.65;;;0.80;;
59042;SDS011;44826;51.596;5.624;2023-04-03T16:14:58;3.85;;;1.30;;
59042;SDS011;44826;51.596;5.624;2023-04-03T16:17:23;2.80;;;1.00;;
59042;SDS011;44826;51.596;5.624;2023-04-03T16:19:48;2.90;;;0.90;;
59042;SDS011;44826;51.596;5.624;2023-04-03T16:22:14;3.65;;;0.88;;
59042;SDS011;44826;51.596;5.624;2023-04-03T16:24:39;2.53;;;0.90;;
59042;SDS011;44826;51.596;5.624;2023-04-03T16:27:04;1.88;;;1.02;;
59042;SDS011;44826;51.596;5.624;2023-04-03T16:29:30;2.70;;;1.00;;
59042;SDS011;44826;51.596;5.624;2023-04-03T16:31:56;1.85;;;0.80;;
59042;SDS011;44826;51.596;5.624;2023-04-03T16:34:22;3.53;;;1.13;;
59042;SDS011;44826;51.596;5.624;2023-04-03T16:36:47;2.95;;;1.00;;
59042;SDS011;44826;51.596;5.624;2023-04-03T16:39:13;3.17;;;1.10;;
59042;SDS011;44826;51.596;5.624;2023-04-03T16:41:38;2.28;;;0.82;;
59042;SDS011;44826;51.596;5.624;2023-04-03T16:44:04;2.00;;;0.88;;
59042;SDS011;44826;51.596;5.624;2023-04-03T16:46:29;2.50;;;1.00;;
59042;SDS011;44826;51.596;5.624;2023-04-03T16:48:54;1.98;;;0.90;;
59042;SDS011;44826;51.596;5.624;2023-04-03T16:51:19;3.17;;;0.90;;
59042;SDS011;44826;51.596;5.624;2023-04-03T16:53:45;2.13;;;0.80;;